Time;durP1;ratioP1;P1;durP2;ratioP2;P2;SDS_P1;SDS_P2;PMS_P1;PMS_P2;Temp;Humidity;BMP_temperature;BMP_pressure;BME280_temperature;BME280_humidity;BME280_pressure;Samples;Min_cycle;Max_cycle;Signal;HPM_P1;HPM_P2
2023/05/15 00:00:14;;;;;;;12.15;7.53;;;;;;;-142.57;100.00;115900.28;4978606;28;20034;-83
2023/05/15 00:02:42;;;;;;;15.30;7.85;;;;;;;-142.57;100.00;115900.28;4977457;28;20410;-81
2023/05/15 00:05:08;;;;;;;11.82;7.10;;;;;;;-142.57;100.00;115900.28;4977885;28;20122;-81
2023/05/15 00:07:34;;;;;;;18.25;7.50;;;;;;;-142.57;100.00;115900.28;4977343;28;20070;-82
2023/05/15 00:10:03;;;;;;;13.38;6.75;;;;;;;-142.57;100.00;115900.28;4976935;28;20504;-81
2023/05/15 00:12:29;;;;;;;10.93;6.28;;;;;;;-142.57;100.00;115900.28;4977308;28;20534;-85
2023/05/15 00:14:54;;;;;;;12.93;6.80;;;;;;;-142.57;100.00;115900.28;4976946;28;20062;-82
2023/05/15 00:17:20;;;;;;;11.23;6.65;;;;;;;-142.57;100.00;115900.28;4980065;28;20132;-82
2023/05/15 00:19:45;;;;;;;12.02;7.10;;;;;;;-142.57;100.00;115900.28;4979917;28;20440;-80
2023/05/15 00:22:11;;;;;;;11.10;7.18;;;;;;;-142.57;100.00;115900.28;4979569;28;20476;-81
2023/05/15 00:24:36;;;;;;;8.00;6.05;;;;;;;-142.57;100.00;115900.28;4979338;28;20415;-81
2023/05/15 00:27:03;;;;;;;17.05;6.38;;;;;;;-142.57;100.00;115900.28;4994546;28;20073;-81
2023/05/15 00:29:29;;;;;;;11.88;6.20;;;;;;;-142.57;100.00;115900.28;4986926;28;20035;-81
2023/05/15 00:31:54;;;;;;;12.45;6.47;;;;;;;-142.57;100.00;115900.28;4977883;28;20064;-78
2023/05/15 00:34:20;;;;;;;12.15;7.03;;;;;;;-142.57;100.00;115900.28;4966285;28;20099;-78
2023/05/15 00:36:46;;;;;;;14.32;6.50;;;;;;;-142.57;100.00;115900.28;4978091;28;20217;-81
2023/05/15 00:39:12;;;;;;;12.70;6.68;;;;;;;-142.57;100.00;115900.28;4992430;28;20388;-84
2023/05/15 00:41:39;;;;;;;18.20;6.25;;;;;;;-142.57;100.00;115900.28;4983143;28;20033;-82
2023/05/15 00:44:06;;;;;;;8.18;6.10;;;;;;;-142.57;100.00;115900.28;4978637;28;20097;-83
2023/05/15 00:46:33;;;;;;;19.55;6.93;;;;;;;-142.57;100.00;115900.28;4982116;28;20121;-83
2023/05/15 00:48:59;;;;;;;13.38;5.82;;;;;;;-142.57;100.00;115900.28;4987532;28;20038;-81
2023/05/15 00:51:25;;;;;;;13.32;6.22;;;;;;;-142.57;100.00;115900.28;4989173;28;20035;-80
2023/05/15 00:53:55;;;;;;;18.40;5.95;;;;;;;-142.57;100.00;115900.28;4984828;28;20038;-82
2023/05/15 00:56:21;;;;;;;8.30;5.85;;;;;;;-142.57;100.00;115900.28;4990092;28;20070;-84
2023/05/15 00:58:49;;;;;;;13.40;5.88;;;;;;;-142.57;100.00;115900.28;4988523;28;20023;-81
2023/05/15 01:01:17;;;;;;;12.43;6.45;;;;;;;-142.57;100.00;115900.28;4991456;28;20023;-81
2023/05/15 01:03:43;;;;;;;11.38;7.10;;;;;;;-142.57;100.00;115900.28;4987821;28;20058;-81
2023/05/15 01:06:09;;;;;;;9.43;6.03;;;;;;;-142.57;100.00;115900.28;4982207;28;20038;-84
2023/05/15 01:08:44;;;;;;;8.38;6.15;;;;;;;-142.57;100.00;115900.28;4981093;28;20031;-82
2023/05/15 01:11:12;;;;;;;8.25;5.80;;;;;;;-142.57;100.00;115900.28;4976716;28;20058;-82
2023/05/15 01:13:37;;;;;;;14.88;6.45;;;;;;;-142.57;100.00;115900.28;4977314;28;20057;-85
2023/05/15 01:16:05;;;;;;;11.95;6.43;;;;;;;-142.57;100.00;115900.28;4975556;28;20122;-83
2023/05/15 01:18:33;;;;;;;7.90;5.82;;;;;;;-142.57;100.00;115900.28;4976169;28;20050;-81
2023/05/15 01:21:20;;;;;;;9.98;6.43;;;;;;;-142.57;100.00;115900.28;4977468;28;20042;-85
2023/05/15 01:24:33;;;;;;;9.55;5.82;;;;;;;-142.57;100.00;115900.28;4983847;28;20085;-84
2023/05/15 01:27:14;;;;;;;12.77;5.95;;;;;;;-142.57;100.00;115900.28;4970852;28;20047;-81
2023/05/15 01:29:46;;;;;;;12.48;6.20;;;;;;;-142.57;100.00;115900.28;4957873;28;20048;-85
2023/05/15 01:32:19;;;;;;;10.10;6.18;;;;;;;-142.57;100.00;115900.28;4959204;28;20057;-85
2023/05/15 01:34:59;;;;;;;14.85;6.20;;;;;;;-142.57;100.00;115900.28;4957489;28;20043;-85
2023/05/15 01:37:28;;;;;;;11.65;5.80;;;;;;;-142.57;100.00;115900.28;4940208;28;20490;-84
2023/05/15 01:39:59;;;;;;;8.10;5.13;;;;;;;-142.57;100.00;115900.28;4939174;28;20039;-83
2023/05/15 01:42:33;;;;;;;11.02;5.38;;;;;;;-142.57;100.00;115900.28;4938680;28;20491;-83
2023/05/15 01:45:03;;;;;;;10.82;5.22;;;;;;;-142.57;100.00;115900.28;4953942;28;20047;-83
2023/05/15 01:47:57;;;;;;;12.57;5.80;;;;;;;-142.57;100.00;115900.28;4955758;28;20043;-83
2023/05/15 01:50:23;;;;;;;19.35;4.95;;;;;;;-142.57;100.00;115900.28;4953569;28;20776;-84
2023/05/15 01:52:52;;;;;;;6.75;5.13;;;;;;;-142.57;100.00;115900.28;4958159;28;20508;-83
2023/05/15 01:55:20;;;;;;;8.57;4.97;;;;;;;-142.57;100.00;115900.28;4940208;28;20035;-82
2023/05/15 01:57:47;;;;;;;11.98;5.10;;;;;;;-142.57;100.00;115900.28;4967474;28;20043;-83
2023/05/15 02:00:13;;;;;;;6.63;4.65;;;;;;;-142.57;100.00;115900.28;4977776;28;20026;-83
2023/05/15 02:02:41;;;;;;;19.60;4.10;;;;;;;-142.57;100.00;115900.28;4976900;28;20170;-82
2023/05/15 02:05:07;;;;;;;5.93;2.80;;;;;;;-142.57;100.00;115900.28;4974419;28;20073;-82
2023/05/15 02:07:33;;;;;;;10.15;2.92;;;;;;;-142.57;100.00;115900.28;4974849;28;20035;-82
2023/05/15 02:10:01;;;;;;;4.00;2.60;;;;;;;-142.57;100.00;115900.28;4978536;28;20051;-82
2023/05/15 02:12:30;;;;;;;4.47;2.55;;;;;;;-142.57;100.00;115900.28;4978187;28;20490;-85
2023/05/15 02:15:10;;;;;;;5.85;2.90;;;;;;;-142.57;100.00;115900.28;4975460;28;20102;-84
2023/05/15 02:17:36;;;;;;;6.25;2.70;;;;;;;-142.57;100.00;115900.28;4982765;28;20326;-84
2023/05/15 02:20:04;;;;;;;5.20;3.13;;;;;;;-142.57;100.00;115900.28;4984159;28;20109;-83
2023/05/15 02:22:30;;;;;;;3.45;2.58;;;;;;;-142.57;100.00;115900.28;4993850;28;20039;-83
2023/05/15 02:24:56;;;;;;;4.03;2.22;;;;;;;-142.57;100.00;115900.28;4978687;28;20034;-86
2023/05/15 02:27:50;;;;;;;6.15;2.30;;;;;;;-142.57;100.00;115900.28;4980268;28;20038;-86
2023/05/15 02:30:45;;;;;;;4.35;1.70;;;;;;;-142.57;100.00;115900.28;4977655;28;20500;-86
2023/05/15 02:33:28;;;;;;;3.15;2.08;;;;;;;-142.57;100.00;115900.28;4978158;28;20042;-81
2023/05/15 02:38:52;;;;;;;6.40;1.65;;;;;;;-142.57;100.00;115900.28;5035863;28;20049;-85
2023/05/15 02:41:18;;;;;;;5.43;1.73;;;;;;;-142.57;100.00;115900.28;5018802;28;20038;-82
2023/05/15 02:43:47;;;;;;;5.10;1.58;;;;;;;-142.57;100.00;115900.28;5037289;28;20116;-84
2023/05/15 02:46:14;;;;;;;3.55;1.60;;;;;;;-142.57;100.00;115900.28;5034966;28;20033;-84
2023/05/15 02:48:41;;;;;;;8.98;1.80;;;;;;;-142.57;100.00;115900.28;5035407;28;20037;-83
2023/05/15 02:51:07;;;;;;;9.20;1.73;;;;;;;-142.57;100.00;115900.28;5035202;28;20060;-83
2023/05/15 02:53:38;;;;;;;3.88;1.42;;;;;;;-142.57;100.00;115900.28;5041105;28;20495;-82
2023/05/15 02:56:04;;;;;;;6.70;1.40;;;;;;;-142.57;100.00;115900.28;5042725;28;20072;-83
2023/05/15 02:58:29;;;;;;;9.02;1.50;;;;;;;-142.57;100.00;115900.28;5039133;28;20502;-83
2023/05/15 03:00:55;;;;;;;3.92;1.30;;;;;;;-142.57;100.00;115900.28;5034665;28;20029;-82
2023/05/15 03:03:21;;;;;;;4.53;1.20;;;;;;;-142.57;100.00;115900.28;5036756;28;20316;-83
2023/05/15 03:05:46;;;;;;;3.03;1.08;;;;;;;-142.57;100.00;115900.28;5031491;28;20377;-84
2023/05/15 03:08:12;;;;;;;3.75;0.98;;;;;;;-142.57;100.00;115900.28;5017455;28;20041;-83
2023/05/15 03:10:37;;;;;;;2.25;1.17;;;;;;;-142.57;100.00;115900.28;5025962;28;20490;-82
2023/05/15 03:13:03;;;;;;;1.27;1.08;;;;;;;-142.57;100.00;115900.28;5044762;22;20049;-83
2023/05/15 03:15:29;;;;;;;4.53;1.40;;;;;;;-142.57;100.00;115900.28;5025798;28;20091;-83
2023/05/15 03:17:54;;;;;;;2.15;1.35;;;;;;;-142.57;100.00;115900.28;5039151;28;20029;-83
2023/05/15 03:20:20;;;;;;;4.75;1.45;;;;;;;-142.57;100.00;115900.28;5036382;28;20033;-84
2023/05/15 03:22:45;;;;;;;1.65;1.17;;;;;;;-142.57;100.00;115900.28;5036018;28;20451;-83
2023/05/15 03:25:11;;;;;;;1.30;0.90;;;;;;;-142.57;100.00;115900.28;5029240;28;20034;-85
2023/05/15 03:27:37;;;;;;;3.60;1.35;;;;;;;-142.57;100.00;115900.28;5014212;28;20030;-81
2023/05/15 03:30:03;;;;;;;7.85;1.42;;;;;;;-142.57;100.00;115900.28;5035252;28;20379;-83
2023/05/15 03:32:29;;;;;;;7.20;1.13;;;;;;;-142.57;100.00;115900.28;5035447;28;20025;-83
2023/05/15 03:34:54;;;;;;;4.45;1.70;;;;;;;-142.57;100.00;115900.28;5034723;28;20048;-84
2023/05/15 03:37:20;;;;;;;1.38;1.00;;;;;;;-142.57;100.00;115900.28;5022819;28;20038;-83
2023/05/15 03:39:47;;;;;;;5.53;1.27;;;;;;;-142.57;100.00;115900.28;5017310;28;20398;-83
2023/05/15 03:42:13;;;;;;;3.28;1.02;;;;;;;-142.57;100.00;115900.28;5015722;28;20130;-84
2023/05/15 03:44:40;;;;;;;3.78;1.40;;;;;;;-142.57;100.00;115900.28;5015740;28;20484;-84
2023/05/15 03:47:11;;;;;;;1.33;1.00;;;;;;;-142.57;100.00;115900.28;5018440;28;20045;-84
2023/05/15 03:49:37;;;;;;;2.80;1.15;;;;;;;-142.57;100.00;115900.28;5014785;28;20132;-83
2023/05/15 03:52:04;;;;;;;4.07;1.35;;;;;;;-142.57;100.00;115900.28;5014866;28;20042;-85
2023/05/15 03:54:30;;;;;;;8.05;2.05;;;;;;;-142.57;100.00;115900.28;5016359;28;20042;-84
2023/05/15 03:56:56;;;;;;;10.60;1.50;;;;;;;-142.57;100.00;115900.28;5019503;28;20074;-85
2023/05/15 03:59:26;;;;;;;4.40;1.02;;;;;;;-142.57;100.00;115900.28;5034876;28;20468;-85
2023/05/15 04:01:52;;;;;;;5.95;1.00;;;;;;;-142.57;100.00;115900.28;5037928;28;20123;-84
2023/05/15 04:04:17;;;;;;;2.75;1.13;;;;;;;-142.57;100.00;115900.28;5053797;28;20064;-85
2023/05/15 04:06:43;;;;;;;6.65;1.30;;;;;;;-142.57;100.00;115900.28;5035612;28;20033;-83
2023/05/15 04:09:08;;;;;;;5.78;1.00;;;;;;;-142.57;100.00;115900.28;5039621;28;20463;-84
2023/05/15 04:11:34;;;;;;;5.82;1.10;;;;;;;-142.57;100.00;115900.28;5042991;28;20048;-83
2023/05/15 04:14:00;;;;;;;7.40;1.45;;;;;;;-142.57;100.00;115900.28;5048055;28;20051;-82
2023/05/15 04:16:46;;;;;;;2.83;0.98;;;;;;;-142.57;100.00;115900.28;5044928;28;20085;-83
2023/05/15 04:19:12;;;;;;;5.15;0.90;;;;;;;-142.57;100.00;115900.28;5054799;28;20025;-82
2023/05/15 04:21:37;;;;;;;3.22;0.82;;;;;;;-142.57;100.00;115900.28;5047527;28;20044;-85
2023/05/15 04:24:04;;;;;;;12.40;1.20;;;;;;;-142.57;100.00;115900.28;5031670;28;20372;-83
2023/05/15 04:26:30;;;;;;;6.70;1.00;;;;;;;-142.57;100.00;115900.28;5018462;28;20045;-85
2023/05/15 04:28:56;;;;;;;6.18;1.05;;;;;;;-142.57;100.00;115900.28;5012759;28;20030;-83
2023/05/15 04:31:22;;;;;;;2.17;1.17;;;;;;;-142.57;100.00;115900.28;5012763;28;20038;-84
2023/05/15 04:33:48;;;;;;;4.07;0.88;;;;;;;-142.57;100.00;115900.28;5012771;28;20045;-84
2023/05/15 04:36:13;;;;;;;3.20;0.82;;;;;;;-142.57;100.00;115900.28;5022143;28;20026;-80
2023/05/15 04:38:39;;;;;;;7.45;1.42;;;;;;;-142.57;100.00;115900.28;5012835;28;20497;-82
2023/05/15 04:41:04;;;;;;;6.40;1.38;;;;;;;-142.57;100.00;115900.28;5011798;28;20046;-85
2023/05/15 04:43:30;;;;;;;2.88;1.20;;;;;;;-142.57;100.00;115900.28;5014124;28;20042;-81
2023/05/15 04:45:57;;;;;;;6.55;1.10;;;;;;;-142.57;100.00;115900.28;5019982;28;20041;-82
2023/05/15 04:48:23;;;;;;;4.00;0.75;;;;;;;-142.57;100.00;115900.28;5031777;28;20158;-83
2023/05/15 04:50:48;;;;;;;5.53;0.70;;;;;;;-142.57;100.00;115900.28;5034867;28;20034;-82
2023/05/15 04:53:14;;;;;;;5.03;1.08;;;;;;;-142.57;100.00;115900.28;5032293;28;20045;-82
2023/05/15 04:55:39;;;;;;;7.45;1.10;;;;;;;-142.57;100.00;115900.28;5034201;28;20552;-82
2023/05/15 04:58:05;;;;;;;3.60;1.13;;;;;;;-142.57;100.00;115900.28;5023595;28;20034;-82
2023/05/15 05:00:30;;;;;;;2.97;1.40;;;;;;;-142.57;100.00;115900.28;5019211;28;20049;-84
2023/05/15 05:02:56;;;;;;;8.23;1.45;;;;;;;-142.57;100.00;115900.28;5026041;28;20490;-84
2023/05/15 05:05:21;;;;;;;9.70;1.52;;;;;;;-142.57;100.00;115900.28;5038352;28;20042;-83
2023/05/15 05:07:47;;;;;;;5.78;1.33;;;;;;;-142.57;100.00;115900.28;5019239;28;20498;-83
2023/05/15 05:10:13;;;;;;;6.32;1.30;;;;;;;-142.57;100.00;115900.28;5016088;28;20022;-82
2023/05/15 05:12:38;;;;;;;4.82;1.35;;;;;;;-142.57;100.00;115900.28;5016238;28;20037;-84
2023/05/15 05:15:04;;;;;;;11.65;1.50;;;;;;;-142.57;100.00;115900.28;5025983;28;20041;-83
2023/05/15 05:17:30;;;;;;;4.70;1.30;;;;;;;-142.57;100.00;115900.28;5018631;28;20057;-84
2023/05/15 05:19:56;;;;;;;13.13;1.50;;;;;;;-142.57;100.00;115900.28;5043171;28;20044;-84
2023/05/15 05:22:21;;;;;;;10.73;1.65;;;;;;;-142.57;100.00;115900.28;5036956;28;20057;-83
2023/05/15 05:24:47;;;;;;;11.30;1.75;;;;;;;-142.57;100.00;115900.28;5022212;28;20394;-82
2023/05/15 05:27:12;;;;;;;8.85;1.40;;;;;;;-142.57;100.00;115900.28;5017660;28;20463;-90
2023/05/15 05:29:38;;;;;;;5.20;1.30;;;;;;;-142.57;100.00;115900.28;5022003;28;20476;-84
2023/05/15 05:32:06;;;;;;;7.90;1.20;;;;;;;-142.57;100.00;115900.28;5038592;28;20037;-83
2023/05/15 05:34:31;;;;;;;15.43;1.77;;;;;;;-142.57;100.00;115900.28;5023269;28;20109;-85
2023/05/15 05:36:58;;;;;;;4.13;1.20;;;;;;;-142.57;100.00;115900.28;5017390;28;20046;-84
2023/05/15 05:39:24;;;;;;;7.82;2.28;;;;;;;-142.57;100.00;115900.28;5018032;28;20037;-83
2023/05/15 05:41:52;;;;;;;8.40;1.27;;;;;;;-142.57;100.00;115900.28;5039887;28;20032;-82
2023/05/15 05:44:17;;;;;;;12.23;1.58;;;;;;;-142.57;100.00;115900.28;5039191;28;20041;-83
2023/05/15 05:46:44;;;;;;;11.32;1.58;;;;;;;-142.57;100.00;115900.28;5037575;28;20514;-86
2023/05/15 05:49:10;;;;;;;10.55;1.75;;;;;;;-142.57;100.00;115900.28;5037653;28;20092;-81
2023/05/15 05:51:35;;;;;;;6.55;1.42;;;;;;;-142.57;100.00;115900.28;5022374;28;21646;-83
2023/05/15 05:54:01;;;;;;;5.78;1.23;;;;;;;-142.57;100.00;115900.28;5018347;28;20406;-88
2023/05/15 05:56:27;;;;;;;4.82;1.20;;;;;;;-142.57;100.00;115900.28;5020419;28;20029;-82
2023/05/15 05:58:53;;;;;;;8.90;1.10;;;;;;;-142.57;100.00;115900.28;5036404;28;20040;-87
2023/05/15 06:01:19;;;;;;;5.55;1.25;;;;;;;-142.57;100.00;115900.28;5033585;28;20183;-86
2023/05/15 06:03:45;;;;;;;10.35;1.40;;;;;;;-142.57;100.00;115900.28;5035000;28;20253;-82
2023/05/15 06:06:11;;;;;;;6.78;1.02;;;;;;;-142.57;100.00;115900.28;5035499;28;20041;-84
2023/05/15 06:08:36;;;;;;;6.38;1.27;;;;;;;-142.57;100.00;115900.28;5034986;28;20390;-88
2023/05/15 06:11:02;;;;;;;6.70;1.08;;;;;;;-142.57;100.00;115900.28;5032123;28;20075;-85
2023/05/15 06:16:09;;;;;;;6.22;1.00;;;;;;;-142.57;100.00;115900.28;4263799;22;20057;-87
2023/05/15 06:18:37;;;;;;;4.45;0.70;;;;;;;-142.57;100.00;115900.28;5040144;28;20034;-86
2023/05/15 06:21:05;;;;;;;4.38;1.15;;;;;;;-142.57;100.00;115900.28;5038254;28;20030;-87
2023/05/15 06:23:31;;;;;;;7.00;0.98;;;;;;;-142.57;100.00;115900.28;5036010;28;20064;-89
2023/05/15 06:25:57;;;;;;;1.98;0.63;;;;;;;-142.57;100.00;115900.28;5036281;28;20470;-90
2023/05/15 06:28:23;;;;;;;2.88;0.47;;;;;;;-142.57;100.00;115900.28;5035434;28;20097;-87
2023/05/15 06:30:51;;;;;;;2.83;0.60;;;;;;;-142.57;93.15;115900.28;5036238;28;20032;-91
2023/05/15 06:33:17;;;;;;;2.20;0.60;;;;;;;-142.57;95.92;115900.28;5035530;28;20044;-83
2023/05/15 06:35:43;;;;;;;4.07;0.60;;;;;;;-142.57;98.03;115900.28;5034706;28;20121;-86
2023/05/15 06:38:09;;;;;;;2.17;0.70;;;;;;;-142.57;93.72;115900.28;5034484;28;20033;-84
2023/05/15 06:40:37;;;;;;;2.25;0.65;;;;;;;-142.57;93.07;115900.28;5034067;28;20053;-84
2023/05/15 06:43:03;;;;;;;1.35;0.50;;;;;;;-142.57;96.04;115900.28;5014674;28;20064;-85
2023/05/15 06:45:28;;;;;;;1.33;0.65;;;;;;;-142.57;86.17;115900.28;5014974;28;20460;-83
2023/05/15 06:47:54;;;;;;;4.15;0.80;;;;;;;-142.57;87.04;115900.28;5029556;28;20033;-89
2023/05/15 06:50:19;;;;;;;0.80;0.57;;;;;;;-142.57;84.75;115900.28;5037047;28;20025;-87
2023/05/15 06:52:45;;;;;;;1.73;0.70;;;;;;;-142.57;78.03;115900.28;5035258;28;20033;-84
2023/05/15 06:55:10;;;;;;;5.28;0.90;;;;;;;-142.57;77.56;115900.28;5033199;28;20057;-86
2023/05/15 06:57:36;;;;;;;2.65;0.90;;;;;;;-142.57;81.03;115900.28;5033957;28;20036;-86
2023/05/15 07:00:01;;;;;;;3.92;0.50;;;;;;;-142.57;74.61;115900.28;5033985;28;20061;-84
2023/05/15 07:02:27;;;;;;;1.88;0.52;;;;;;;-142.57;74.38;115900.28;5033414;28;20045;-83
2023/05/15 07:04:56;;;;;;;3.63;0.93;;;;;;;-142.57;66.84;115900.28;5035691;28;20396;-86
2023/05/15 07:07:21;;;;;;;2.58;0.90;;;;;;;-142.57;71.64;115900.28;5036191;28;20037;-85
2023/05/15 07:09:49;;;;;;;2.33;0.70;;;;;;;-142.57;70.45;115900.28;5016392;28;20072;-82
2023/05/15 07:12:15;;;;;;;1.80;0.50;;;;;;;-142.57;65.24;115900.28;5036736;28;20092;-84
2023/05/15 07:14:40;;;;;;;2.40;0.50;;;;;;;-142.57;66.40;115900.28;5019339;28;20045;-85
2023/05/15 07:17:06;;;;;;;3.75;0.63;;;;;;;-142.57;69.60;115900.28;5036084;28;20199;-85
2023/05/15 07:19:32;;;;;;;6.25;0.75;;;;;;;-142.57;68.06;115900.28;5037893;28;20136;-84
2023/05/15 07:21:58;;;;;;;4.63;0.80;;;;;;;-142.57;66.18;115900.28;5037582;28;20048;-87
2023/05/15 07:24:23;;;;;;;7.25;0.70;;;;;;;-142.57;60.99;115900.28;5035081;28;20033;-85
2023/05/15 07:26:49;;;;;;;7.15;1.20;;;;;;;-142.57;64.06;115900.28;5038156;28;20033;-88
2023/05/15 07:29:15;;;;;;;1.02;0.52;;;;;;;-142.57;64.37;115900.28;5037222;28;20036;-86
2023/05/15 07:31:43;;;;;;;3.47;0.65;;;;;;;-142.57;63.52;115900.28;5036600;28;20029;-85
2023/05/15 07:34:10;;;;;;;4.43;1.17;;;;;;;-142.57;60.31;115900.28;5036925;28;20116;-85
2023/05/15 07:36:35;;;;;;;0.65;0.40;;;;;;;-142.57;58.75;115900.28;5040126;28;20017;-85
2023/05/15 07:39:01;;;;;;;7.85;0.80;;;;;;;-142.57;52.44;115900.28;5039121;28;20402;-86
2023/05/15 07:41:26;;;;;;;2.47;0.70;;;;;;;-142.57;55.30;115900.28;5043560;28;20025;-86
2023/05/15 07:43:52;;;;;;;1.00;0.60;;;;;;;-142.57;57.88;115900.28;5044117;28;20093;-88
2023/05/15 07:46:17;;;;;;;4.15;0.80;;;;;;;-142.57;62.78;115900.28;5041569;28;20403;-88
2023/05/15 07:48:43;;;;;;;3.35;0.80;;;;;;;-142.57;62.26;115900.28;5041091;28;20013;-88
2023/05/15 07:51:08;;;;;;;2.85;0.70;;;;;;;-142.57;56.80;115900.28;5049469;28;20029;-85
2023/05/15 07:53:37;;;;;;;2.45;0.60;;;;;;;-142.57;56.06;115900.28;5045296;28;20025;-88
2023/05/15 07:56:05;;;;;;;2.83;0.73;;;;;;;-142.57;55.30;115900.28;5044080;28;20037;-86
2023/05/15 07:58:36;;;;;;;3.28;0.60;;;;;;;-142.57;50.53;115900.28;5045117;28;20037;-86
2023/05/15 08:01:02;;;;;;;2.90;0.73;;;;;;;-142.57;48.97;115900.28;5042563;28;20052;-88
2023/05/15 08:03:28;;;;;;;1.70;0.52;;;;;;;-142.57;51.94;115900.28;5039980;28;20398;-86
2023/05/15 08:05:53;;;;;;;1.35;0.52;;;;;;;-142.57;47.32;115900.28;5036889;28;20096;-85
2023/05/15 08:08:19;;;;;;;2.15;0.70;;;;;;;-142.57;45.16;115900.28;5041090;28;20128;-88
2023/05/15 08:10:44;;;;;;;3.50;0.60;;;;;;;-142.57;43.60;115900.28;5039848;28;20048;-91
2023/05/15 08:13:11;;;;;;;2.65;0.75;;;;;;;-142.57;44.08;115900.28;5041035;28;20037;-83
2023/05/15 08:15:36;;;;;;;3.13;0.80;;;;;;;-142.57;46.76;115900.28;5041594;28;20035;-88
2023/05/15 08:18:10;;;;;;;3.00;0.73;;;;;;;-142.57;47.85;115900.28;5044923;28;20048;-86
2023/05/15 08:20:38;;;;;;;1.13;0.70;;;;;;;-142.57;46.89;115900.28;5039182;28;20026;-86
2023/05/15 08:23:04;;;;;;;1.73;0.90;;;;;;;-142.57;49.06;115900.28;5034821;28;20037;-88
2023/05/15 08:25:32;;;;;;;2.45;1.02;;;;;;;-142.57;51.09;115900.28;5044277;28;20093;-87
2023/05/15 08:27:58;;;;;;;4.55;1.30;;;;;;;-142.57;52.04;115900.28;5024248;28;20383;-87
2023/05/15 08:30:23;;;;;;;11.48;1.70;;;;;;;-142.57;51.68;115900.28;5041941;28;20068;-87
2023/05/15 08:32:49;;;;;;;2.63;1.13;;;;;;;-142.57;49.58;115900.28;5036166;28;20109;-89
2023/05/15 08:35:14;;;;;;;3.45;1.10;;;;;;;-142.57;48.64;115900.28;5033169;28;20029;-87
2023/05/15 08:37:40;;;;;;;2.15;0.70;;;;;;;-142.57;49.74;115900.28;5037848;28;20041;-87
2023/05/15 08:40:06;;;;;;;4.43;1.10;;;;;;;-142.57;48.37;115900.28;5041183;28;20037;-85
2023/05/15 08:42:54;;;;;;;3.42;1.38;;;;;;;-142.57;46.16;115900.28;5041894;28;20046;-87
2023/05/15 08:45:29;;;;;;;2.75;1.00;;;;;;;-142.57;46.47;115900.28;5043753;28;20046;-90
2023/05/15 08:48:24;;;;;;;3.25;1.08;;;;;;;-142.57;49.13;115900.28;5046138;28;20045;-88
2023/05/15 08:50:54;;;;;;;4.90;0.90;;;;;;;-142.57;47.43;115900.28;5046044;28;20057;-86
2023/05/15 08:53:20;;;;;;;125.90;11.93;;;;;;;-142.57;43.58;115900.28;5048923;28;20033;-87
2023/05/15 08:55:47;;;;;;;2.67;1.02;;;;;;;-142.57;44.16;115900.28;5051209;28;20071;-85
2023/05/15 08:58:13;;;;;;;1.80;0.60;;;;;;;-142.57;44.69;115900.28;5029612;28;20268;-87
2023/05/15 09:00:39;;;;;;;4.07;0.95;;;;;;;-142.57;44.40;115900.28;5030418;28;20061;-87
2023/05/15 09:03:04;;;;;;;2.15;0.77;;;;;;;-142.57;43.21;115900.28;5037581;28;20080;-89
2023/05/15 09:05:30;;;;;;;2.00;0.88;;;;;;;-142.57;43.22;115900.28;5045196;28;20056;-88
2023/05/15 09:08:04;;;;;;;1.13;0.70;;;;;;;-142.57;44.20;115900.28;5046560;28;20049;-89
2023/05/15 09:10:30;;;;;;;1.00;0.80;;;;;;;-142.57;43.19;115900.28;5046097;28;20033;-89
2023/05/15 09:12:59;;;;;;;9.07;1.42;;;;;;;-142.57;44.64;115900.28;5044402;28;20096;-87
2023/05/15 09:15:31;;;;;;;5.03;1.38;;;;;;;-142.57;46.33;115900.28;5038107;28;20042;-89
2023/05/15 09:17:58;;;;;;;1.85;0.82;;;;;;;-142.57;46.37;115900.28;5032745;28;20399;-88
2023/05/15 09:20:31;;;;;;;2.15;1.20;;;;;;;-142.57;45.54;115900.28;5036850;28;20095;-87
2023/05/15 09:23:00;;;;;;;1.17;0.80;;;;;;;-142.57;45.54;115900.28;5027012;28;20461;-85
2023/05/15 09:25:43;;;;;;;6.95;1.00;;;;;;;-142.57;46.11;115900.28;5043200;28;20167;-85
2023/05/15 09:28:30;;;;;;;1.75;0.80;;;;;;;-142.57;46.09;115900.28;5027750;28;20476;-86
2023/05/15 09:31:04;;;;;;;21.50;1.98;;;;;;;-142.57;46.66;115900.28;5032949;28;20029;-83
2023/05/15 09:33:33;;;;;;;1.77;0.95;;;;;;;-142.57;48.21;115900.28;5025691;28;20052;-83
2023/05/15 09:36:00;;;;;;;3.85;0.70;;;;;;;-142.57;46.94;115900.28;5022175;28;20045;-80
2023/05/15 09:38:26;;;;;;;5.57;0.82;;;;;;;-142.57;45.33;115900.28;5035825;28;20038;-85
2023/05/15 09:41:01;;;;;;;4.20;0.98;;;;;;;-142.57;43.35;115900.28;5027903;28;20030;-82
2023/05/15 09:43:38;;;;;;;1.30;0.90;;;;;;;-142.57;44.55;115900.28;5033415;28;20433;-81
2023/05/15 09:46:08;;;;;;;4.38;1.13;;;;;;;-142.57;44.52;115900.28;5040306;28;20033;-81
2023/05/15 09:48:34;;;;;;;6.10;1.08;;;;;;;-142.57;44.61;115900.28;5034993;28;20052;-82
2023/05/15 09:51:06;;;;;;;8.50;1.48;;;;;;;-142.57;43.97;115900.28;5032608;28;20033;-84
2023/05/15 09:53:37;;;;;;;1.98;1.00;;;;;;;-142.57;45.88;115900.28;5039637;28;20040;-79
2023/05/15 09:56:03;;;;;;;4.35;0.98;;;;;;;-142.57;45.71;115900.28;5053988;28;20069;-82
2023/05/15 09:58:29;;;;;;;4.13;1.13;;;;;;;-142.57;43.90;115900.28;5053787;28;20033;-81
2023/05/15 10:00:58;;;;;;;3.72;1.30;;;;;;;-142.57;43.44;115900.28;5012802;28;20410;-83
2023/05/15 10:03:23;;;;;;;3.72;1.02;;;;;;;-142.57;42.84;115900.28;5036400;28;20077;-83
2023/05/15 10:05:49;;;;;;;1.55;0.82;;;;;;;-142.57;42.10;115900.28;5033965;28;20021;-84
2023/05/15 10:08:28;;;;;;;2.83;1.23;;;;;;;-142.57;41.14;115900.28;5038275;28;20041;-85
2023/05/15 10:11:00;;;;;;;;;;;;;;;-142.57;43.20;115900.28;5032072;28;20057;-85
2023/05/15 10:13:32;;;;;;;19.52;1.90;;;;;;;-142.57;43.90;115900.28;5046678;28;19924;-85
2023/05/15 10:15:58;;;;;;;6.45;1.40;;;;;;;-142.57;42.91;115900.28;5046522;28;20049;-83
2023/05/15 10:18:29;;;;;;;4.72;1.42;;;;;;;-142.57;42.39;115900.28;5027099;28;20021;-85
2023/05/15 10:20:56;;;;;;;6.53;1.60;;;;;;;-142.57;42.52;115900.28;5027116;28;20045;-83
2023/05/15 10:23:23;;;;;;;2.20;1.02;;;;;;;-142.57;43.11;115900.28;5030590;28;20062;-83
2023/05/15 10:26:02;;;;;;;3.42;1.23;;;;;;;-142.57;42.54;115900.28;5035929;28;20058;-82
2023/05/15 10:28:27;;;;;;;3.58;1.85;;;;;;;-142.57;43.42;115900.28;5041433;28;20069;-85
2023/05/15 10:30:56;;;;;;;3.40;1.70;;;;;;;-142.57;45.76;115900.28;5038240;28;20037;-84
2023/05/15 10:33:22;;;;;;;5.65;2.00;;;;;;;-142.57;48.70;115900.28;5051085;28;20033;-85
2023/05/15 10:35:50;;;;;;;3.88;1.27;;;;;;;-142.57;46.86;115900.28;5049188;28;20036;-85
2023/05/15 10:38:23;;;;;;;3.40;1.35;;;;;;;-142.57;44.86;115900.28;5035312;28;20094;-84
2023/05/15 10:40:51;;;;;;;4.28;1.45;;;;;;;-142.57;42.73;115900.28;5034152;28;20024;-84
2023/05/15 10:43:19;;;;;;;3.53;1.20;;;;;;;-142.57;44.54;115900.28;5033108;28;20029;-84
2023/05/15 10:46:07;;;;;;;5.20;1.52;;;;;;;-142.57;45.01;115900.28;5033875;28;20176;-82
2023/05/15 10:48:34;;;;;;;2.65;1.65;;;;;;;-142.57;48.84;115900.28;5033716;28;20037;-82
2023/05/15 10:51:00;;;;;;;2.55;1.55;;;;;;;-142.57;49.50;115900.28;5044410;28;20025;-86
2023/05/15 10:53:26;;;;;;;5.60;1.67;;;;;;;-142.57;47.79;115900.28;5045609;28;20064;-85
2023/05/15 10:55:53;;;;;;;78.78;5.15;;;;;;;-142.57;46.67;115900.28;5023743;28;20045;-85
2023/05/15 10:58:23;;;;;;;18.85;2.42;;;;;;;-142.57;44.31;115900.28;5043023;28;20038;-84
2023/05/15 11:00:50;;;;;;;6.55;1.67;;;;;;;-142.57;42.14;115900.28;5042151;28;20041;-82
2023/05/15 11:03:37;;;;;;;6.85;1.50;;;;;;;-142.57;40.74;115900.28;5035415;28;20443;-81
2023/05/15 11:06:12;;;;;;;2.65;1.65;;;;;;;-142.57;41.54;115900.28;5040250;28;20479;-81
2023/05/15 11:08:43;;;;;;;6.05;1.60;;;;;;;-142.57;43.80;115900.28;5040676;28;20029;-83
2023/05/15 11:11:47;;;;;;;12.05;1.73;;;;;;;-142.57;45.20;115900.28;5037526;28;20038;-85
2023/05/15 11:14:14;;;;;;;10.73;1.92;;;;;;;-142.57;45.69;115900.28;5045419;28;20101;-83